메인 페이지
METAR-TAF:

METAR-TAF

공항 :

디오스다도 마카파갈 국제공항

앙헬레스, 필리핀

위도: 15-11N, 경도: 120-33E, 고도: 148m

현재 날씨관측

예보는 23분 전, 14:00시(UTC)에 발표되었습니다.
북북서3kt
온도 26°C
습도 94%
기압 1010 hPa
시정: 6000m
고도 1800ft 상공 구름 보통
고도 9000ft 상공 흐림
약한비

METAR: RPLC 251400Z 34003KT 6000 -RA SCT018 OVC090 26/25 Q1010 RMK A2983

시각: 22:23 (14:23 UTC)

예보

예보는 3 시간 23분 전, 11:00시(UTC)에 발표되었습니다.
예보 대상 시간: 25일 12시부터 26일 18시까지 (UTC)
10kt
시정 10km 이상
고도 2000ft 상공 구름 보통
고도 10000ft 상공 구름 많음
일시적
25일 12시부터 25일 18시까지 (UTC)
동북동8kt
시정: 5000m
고도 1500ft 상공 구름 조금, 적란운.
고도 2000ft 상공 구름 보통
고도 10000ft 상공 구름 많음
뇌우, 약한비,

TAF: RPLC 251100Z 2512/2618 36010KT 9999 SCT020 BKN100 TX35/2606Z TN26/2521Z TEMPO 2512/2518 07008KT 5000 -TSRA FEW015CB SCT020 BKN100

4,000개 이상의 공항 관측 자료 및 예보 (METAR 및 TAF 보고).

지도상에서 검색 가능한 기상관측소가 노란 점과 빨간 점으로 표시되어 있습니다.

기상관측소 명을 보려면 표시 위로 마우스를 이동하세요.

날씨 관측과 예보를 보려면 클릭하세요.

지도 변경 : 확대하려면 엑스 표시가 있는 녹색 버튼, 축소하려면 빼기 표시가 있는 녹색 버튼, 다음 페이지의 지도를 보려면 녹색 화살표를 클릭하세요.


METAR-TAF: